createdAt,value
2018-09-18T00:00:29.930Z,77.20
2018-09-18T00:01:03.313Z,77.20
2018-09-18T00:01:36.455Z,77.10
2018-09-18T00:02:09.622Z,77.20
2018-09-18T00:02:42.748Z,77.00
2018-09-18T00:03:16.109Z,77.00
2018-09-18T00:03:49.296Z,77.10
2018-09-18T00:04:22.480Z,77.10
2018-09-18T00:04:55.657Z,77.20
2018-09-18T00:05:28.814Z,77.30
2018-09-18T00:06:02.026Z,77.30
2018-09-18T00:06:35.254Z,77.40
2018-09-18T00:07:08.427Z,77.50
2018-09-18T00:07:41.552Z,77.60
2018-09-18T00:08:14.675Z,77.60
2018-09-18T00:08:48.041Z,77.60
2018-09-18T00:09:21.218Z,77.50
2018-09-18T00:09:54.403Z,77.50
2018-09-18T00:10:27.536Z,77.50
2018-09-18T00:11:00.671Z,77.50
2018-09-18T00:11:33.919Z,77.60
2018-09-18T00:12:07.294Z,77.60
2018-09-18T00:12:40.712Z,77.60
2018-09-18T00:13:13.932Z,77.60
2018-09-18T00:13:47.063Z,77.60
2018-09-18T00:14:20.247Z,77.60
2018-09-18T00:14:53.406Z,77.50
2018-09-18T00:15:26.594Z,77.50
2018-09-18T00:15:59.843Z,77.40
2018-09-18T00:16:33.035Z,77.50
2018-09-18T00:17:06.191Z,77.60
2018-09-18T00:17:39.385Z,77.60
2018-09-18T00:18:12.759Z,77.60
2018-09-18T00:18:46.067Z,77.60
2018-09-18T00:19:19.440Z,77.60
2018-09-18T00:19:52.625Z,77.60
2018-09-18T00:20:25.862Z,77.70
2018-09-18T00:20:58.992Z,77.70
2018-09-18T00:21:32.216Z,77.90
2018-09-18T00:22:05.364Z,77.80
2018-09-18T00:22:38.531Z,77.90
2018-09-18T00:23:11.744Z,77.90
2018-09-18T00:23:44.933Z,77.90
2018-09-18T00:24:18.120Z,77.90
2018-09-18T00:24:51.934Z,77.90
2018-09-18T00:25:25.143Z,78.00
2018-09-18T00:25:58.378Z,78.00
2018-09-18T00:26:31.526Z,78.10
2018-09-18T00:27:04.683Z,78.00
2018-09-18T00:27:37.865Z,78.10
2018-09-18T00:28:11.194Z,78.10
2018-09-18T00:28:44.401Z,78.10
2018-09-18T00:29:17.542Z,77.90
2018-09-18T00:29:50.751Z,77.90
2018-09-18T00:30:23.886Z,77.80
2018-09-18T00:30:57.012Z,77.90
2018-09-18T00:31:30.188Z,77.90
2018-09-18T00:32:03.346Z,77.70
2018-09-18T00:32:36.495Z,77.50
2018-09-18T00:33:09.658Z,77.30
2018-09-18T00:33:42.825Z,77.30
2018-09-18T00:34:16.000Z,77.20
2018-09-18T00:34:49.187Z,77.20
2018-09-18T00:35:22.377Z,77.10
2018-09-18T00:35:55.563Z,77.00
2018-09-18T00:36:28.711Z,76.90
2018-09-18T00:37:01.888Z,76.80
2018-09-18T00:37:35.068Z,76.80
2018-09-18T00:38:08.228Z,76.80
2018-09-18T00:38:41.488Z,76.90
2018-09-18T00:39:14.643Z,76.90
2018-09-18T00:39:47.858Z,77.10
2018-09-18T00:40:21.021Z,77.20
2018-09-18T00:40:54.178Z,77.30
2018-09-18T00:41:27.294Z,77.00
2018-09-18T00:42:00.492Z,76.80
2018-09-18T00:42:33.667Z,76.60
2018-09-18T00:43:06.912Z,76.30
2018-09-18T00:43:40.070Z,76.20
2018-09-18T00:44:13.380Z,76.10
2018-09-18T00:44:46.530Z,76.20
2018-09-18T00:45:19.717Z,76.20
2018-09-18T00:45:53.010Z,76.30
2018-09-18T00:46:26.461Z,76.40
2018-09-18T00:46:59.657Z,76.40
2018-09-18T00:47:33.451Z,76.60
2018-09-18T00:48:07.289Z,76.70
2018-09-18T00:48:42.279Z,76.60
2018-09-18T00:49:15.437Z,77.00
2018-09-18T00:49:48.604Z,76.60
2018-09-18T00:50:21.873Z,76.50
2018-09-18T00:50:55.079Z,76.50
2018-09-18T00:51:28.407Z,76.60
2018-09-18T00:52:01.582Z,76.50
2018-09-18T00:52:34.819Z,76.60
2018-09-18T00:53:08.108Z,76.60
2018-09-18T00:53:41.404Z,76.60
2018-09-18T00:54:14.605Z,76.70
2018-09-18T00:54:47.812Z,76.80
2018-09-18T00:55:20.931Z,76.90
2018-09-18T00:55:54.266Z,77.00
2018-09-18T00:56:27.937Z,77.00
2018-09-18T00:57:01.151Z,77.20
2018-09-18T00:57:34.302Z,78.00
2018-09-18T00:58:07.477Z,77.30
2018-09-18T00:58:40.636Z,77.30
2018-09-18T00:59:13.799Z,77.30
2018-09-18T00:59:46.961Z,77.30
2018-09-18T01:00:20.306Z,77.40
2018-09-18T01:00:54.132Z,77.50
2018-09-18T01:01:28.010Z,77.50
2018-09-18T01:02:01.165Z,77.60
2018-09-18T01:02:34.380Z,77.70
2018-09-18T01:03:07.555Z,77.80
2018-09-18T01:03:40.825Z,77.90
2018-09-18T01:04:14.098Z,78.00
2018-09-18T01:04:47.241Z,78.10
2018-09-18T01:05:20.388Z,78.00
2018-09-18T01:05:53.535Z,78.00
2018-09-18T01:06:26.736Z,77.90
2018-09-18T01:06:59.916Z,78.00
2018-09-18T01:07:33.693Z,78.00
2018-09-18T01:08:06.871Z,78.10
2018-09-18T01:08:40.161Z,78.10
2018-09-18T01:09:13.381Z,78.10
2018-09-18T01:09:46.545Z,78.20
2018-09-18T01:10:19.708Z,78.20
2018-09-18T01:10:52.877Z,78.20
2018-09-18T01:11:26.034Z,78.30
2018-09-18T01:11:59.222Z,78.30
2018-09-18T01:12:32.376Z,78.30
2018-09-18T01:13:05.662Z,78.40
2018-09-18T01:13:38.814Z,78.40
2018-09-18T01:14:11.994Z,78.50
2018-09-18T01:14:45.145Z,78.40
2018-09-18T01:15:18.274Z,78.40
2018-09-18T01:15:51.401Z,78.50
2018-09-18T01:16:24.578Z,78.60
2018-09-18T01:16:57.747Z,78.70
2018-09-18T01:17:30.923Z,78.80
2018-09-18T01:18:04.116Z,78.80
2018-09-18T01:18:40.206Z,78.80
2018-09-18T01:19:13.382Z,78.70
2018-09-18T01:19:46.544Z,78.70
2018-09-18T01:20:19.679Z,78.80
2018-09-18T01:20:52.811Z,78.90
2018-09-18T01:21:25.980Z,79.00
2018-09-18T01:21:59.172Z,79.10
2018-09-18T01:22:32.323Z,79.20
2018-09-18T01:23:05.513Z,79.10
2018-09-18T01:23:38.873Z,79.20
2018-09-18T01:24:12.036Z,79.20
2018-09-18T01:24:45.185Z,79.40
2018-09-18T01:25:18.368Z,79.40
2018-09-18T01:25:51.519Z,79.30
2018-09-18T01:26:24.673Z,79.30
2018-09-18T01:26:57.815Z,79.30
2018-09-18T01:27:31.445Z,79.30
2018-09-18T01:28:04.794Z,79.40
2018-09-18T01:28:37.966Z,79.40
2018-09-18T01:29:11.140Z,79.50
2018-09-18T01:29:44.358Z,79.70
2018-09-18T01:30:17.492Z,79.90
2018-09-18T01:30:50.831Z,79.70
2018-09-18T01:31:23.989Z,79.70
2018-09-18T01:31:57.144Z,79.70
2018-09-18T01:32:30.321Z,79.70
2018-09-18T01:33:03.542Z,79.60
2018-09-18T01:33:36.686Z,79.70
2018-09-18T01:34:09.792Z,79.70
2018-09-18T01:34:43.108Z,80.50
2018-09-18T01:35:16.857Z,79.80
2018-09-18T01:35:50.282Z,79.90
2018-09-18T01:36:23.439Z,79.80
2018-09-18T01:36:56.618Z,79.90
2018-09-18T01:37:29.781Z,80.00
2018-09-18T01:38:02.955Z,80.00
2018-09-18T01:38:36.136Z,80.00
2018-09-18T01:39:09.886Z,79.90
2018-09-18T01:39:43.053Z,80.00
2018-09-18T01:40:16.601Z,80.10
2018-09-18T01:40:49.975Z,80.20
2018-09-18T01:41:23.135Z,80.20
2018-09-18T01:41:56.367Z,80.20
2018-09-18T01:42:29.660Z,80.20
2018-09-18T01:43:03.451Z,80.30
2018-09-18T01:43:36.703Z,80.40
2018-09-18T01:44:09.956Z,80.40
2018-09-18T01:44:43.096Z,80.40
2018-09-18T01:45:16.289Z,80.40
2018-09-18T01:45:49.758Z,80.40
2018-09-18T01:46:22.922Z,80.40
2018-09-18T01:46:56.058Z,80.40
2018-09-18T01:47:29.239Z,80.50
2018-09-18T01:48:02.372Z,80.50
2018-09-18T01:48:35.505Z,80.50
2018-09-18T01:49:08.664Z,80.50
2018-09-18T01:49:41.854Z,80.50
2018-09-18T01:50:15.007Z,80.60
2018-09-18T01:50:48.310Z,80.50
2018-09-18T01:51:21.504Z,80.50
2018-09-18T01:51:54.669Z,80.50
2018-09-18T01:52:27.894Z,80.60
2018-09-18T01:53:01.018Z,80.70
2018-09-18T01:53:34.178Z,80.80
2018-09-18T01:54:07.473Z,80.70
2018-09-18T01:54:40.658Z,80.70
2018-09-18T01:55:13.837Z,80.60
2018-09-18T01:55:46.965Z,80.50
2018-09-18T01:56:20.139Z,80.40
2018-09-18T01:56:53.295Z,80.60
2018-09-18T01:57:26.634Z,80.40
2018-09-18T01:57:59.788Z,80.30
2018-09-18T01:58:32.948Z,80.40
2018-09-18T01:59:06.305Z,80.40
2018-09-18T01:59:39.474Z,80.50
2018-09-18T02:00:12.667Z,80.40
2018-09-18T02:00:45.871Z,80.50
2018-09-18T02:01:19.048Z,80.50
2018-09-18T02:01:52.233Z,80.70
2018-09-18T02:02:25.426Z,80.70
2018-09-18T02:02:58.554Z,80.70
2018-09-18T02:03:31.739Z,80.70
2018-09-18T02:04:05.055Z,80.70
2018-09-18T02:04:38.198Z,80.60
2018-09-18T02:05:11.378Z,80.50
2018-09-18T02:05:44.543Z,80.30
2018-09-18T02:06:17.729Z,80.20
2018-09-18T02:06:50.901Z,80.00
2018-09-18T02:07:24.093Z,79.90
2018-09-18T02:07:57.871Z,79.80
2018-09-18T02:08:31.026Z,79.70
2018-09-18T02:09:04.920Z,79.50
2018-09-18T02:09:38.088Z,79.50
2018-09-18T02:10:11.350Z,79.50
2018-09-18T02:10:44.481Z,79.50
2018-09-18T02:11:17.627Z,79.50
2018-09-18T02:11:50.859Z,79.60
2018-09-18T02:12:24.019Z,79.70
2018-09-18T02:12:57.231Z,79.70
2018-09-18T02:13:30.394Z,79.60
2018-09-18T02:14:03.588Z,79.70
2018-09-18T02:14:36.758Z,79.90
2018-09-18T02:15:09.994Z,79.80
2018-09-18T02:15:43.530Z,80.00
2018-09-18T02:16:16.642Z,80.00
2018-09-18T02:16:49.947Z,80.00
2018-09-18T02:17:23.134Z,79.90
2018-09-18T02:17:56.335Z,79.90
2018-09-18T02:18:29.471Z,79.90
2018-09-18T02:19:02.684Z,79.90
2018-09-18T02:19:35.909Z,79.80
2018-09-18T02:20:09.126Z,80.00
2018-09-18T02:20:42.295Z,79.90
2018-09-18T02:21:15.501Z,79.90
2018-09-18T02:21:48.645Z,79.90
2018-09-18T02:22:21.811Z,79.90
2018-09-18T02:22:55.042Z,80.00
2018-09-18T02:23:28.216Z,80.00
2018-09-18T02:24:01.355Z,80.10
2018-09-18T02:24:35.181Z,80.20
2018-09-18T02:25:08.410Z,80.20
2018-09-18T02:25:41.655Z,80.20
2018-09-18T02:26:15.286Z,80.20
2018-09-18T02:26:48.488Z,80.30
2018-09-18T02:27:21.654Z,80.30
2018-09-18T02:27:54.843Z,80.30
2018-09-18T02:28:28.028Z,80.30
2018-09-18T02:29:01.192Z,80.20
2018-09-18T02:29:34.375Z,80.10
2018-09-18T02:30:07.564Z,80.10
2018-09-18T02:30:40.761Z,80.20
2018-09-18T02:31:14.097Z,80.20
2018-09-18T02:31:47.287Z,80.10
2018-09-18T02:32:20.925Z,80.00
2018-09-18T02:32:54.083Z,80.00
2018-09-18T02:33:27.259Z,80.10
2018-09-18T02:34:00.504Z,80.20
2018-09-18T02:34:33.859Z,80.30
2018-09-18T02:35:07.138Z,80.30
2018-09-18T02:35:40.415Z,80.30
2018-09-18T02:36:13.644Z,80.30
2018-09-18T02:36:46.897Z,80.40
2018-09-18T02:37:20.058Z,80.50
2018-09-18T02:37:53.218Z,80.50
2018-09-18T02:38:26.584Z,80.60
2018-09-18T02:38:59.769Z,80.60
2018-09-18T02:39:33.537Z,80.70
2018-09-18T02:40:07.066Z,80.70
2018-09-18T02:40:40.235Z,80.80
2018-09-18T02:41:13.637Z,80.90
2018-09-18T02:41:46.996Z,80.90
2018-09-18T02:42:20.918Z,81.00
2018-09-18T02:42:54.062Z,81.10
2018-09-18T02:43:27.227Z,81.10
2018-09-18T02:44:00.389Z,81.10
2018-09-18T02:44:33.517Z,81.10
2018-09-18T02:45:06.846Z,81.20
2018-09-18T02:45:40.266Z,81.10
2018-09-18T02:46:13.805Z,81.30
2018-09-18T02:46:46.974Z,81.40
2018-09-18T02:47:20.139Z,81.00
2018-09-18T02:47:53.322Z,81.60
2018-09-18T02:48:26.529Z,81.70
2018-09-18T02:48:59.754Z,81.90
2018-09-18T02:49:32.901Z,82.00
2018-09-18T02:50:06.069Z,82.00
2018-09-18T02:50:39.394Z,82.00
2018-09-18T02:51:12.960Z,82.10
2018-09-18T02:51:46.184Z,82.10
2018-09-18T02:52:19.991Z,82.20
2018-09-18T02:52:53.175Z,81.70
2018-09-18T02:53:26.342Z,82.50
2018-09-18T02:53:59.601Z,82.60
2018-09-18T02:54:32.778Z,82.60
2018-09-18T02:55:06.024Z,82.80
2018-09-18T02:55:39.676Z,82.90
2018-09-18T02:56:12.848Z,82.90
2018-09-18T02:56:46.027Z,83.60
2018-09-18T02:57:19.191Z,83.10
2018-09-18T02:57:52.352Z,83.80
2018-09-18T02:58:25.567Z,83.10
2018-09-18T02:58:58.713Z,83.00
2018-09-18T02:59:31.910Z,83.80
2018-09-18T03:00:05.607Z,83.10
2018-09-18T03:00:38.754Z,83.00
2018-09-18T03:01:11.933Z,82.90
2018-09-18T03:01:45.092Z,82.70
2018-09-18T03:02:18.227Z,82.60
2018-09-18T03:02:51.362Z,82.60
2018-09-18T03:03:24.492Z,82.60
2018-09-18T03:03:57.637Z,82.60
2018-09-18T03:04:30.857Z,82.70
2018-09-18T03:05:04.009Z,82.70
2018-09-18T03:05:37.409Z,82.70
2018-09-18T03:06:10.571Z,82.70
2018-09-18T03:06:43.728Z,82.70
2018-09-18T03:07:16.908Z,82.80
2018-09-18T03:07:50.079Z,82.70
2018-09-18T03:08:23.293Z,82.50
2018-09-18T03:08:56.444Z,82.40
2018-09-18T03:09:29.634Z,82.20
2018-09-18T03:10:03.091Z,82.00
2018-09-18T03:10:36.432Z,81.90
2018-09-18T03:11:09.811Z,81.90
2018-09-18T03:11:42.926Z,81.80
2018-09-18T03:12:16.052Z,81.60
2018-09-18T03:12:49.211Z,81.60
2018-09-18T03:13:22.326Z,81.50
2018-09-18T03:13:55.471Z,81.60
2018-09-18T03:14:28.641Z,81.50
2018-09-18T03:15:01.855Z,81.70
2018-09-18T03:15:35.002Z,81.80
2018-09-18T03:16:08.194Z,82.00
2018-09-18T03:16:41.490Z,82.00
2018-09-18T03:17:14.674Z,81.90
2018-09-18T03:17:48.287Z,81.90
2018-09-18T03:18:21.468Z,81.80
2018-09-18T03:18:54.624Z,81.90
2018-09-18T03:19:27.780Z,82.00
2018-09-18T03:20:00.935Z,82.00
2018-09-18T03:20:34.120Z,82.10
2018-09-18T03:21:07.725Z,82.20
2018-09-18T03:21:40.907Z,82.20
2018-09-18T03:22:14.221Z,82.20
2018-09-18T03:22:47.407Z,82.20
2018-09-18T03:23:20.629Z,82.20
2018-09-18T03:23:53.829Z,82.30
2018-09-18T03:24:27.475Z,82.50
2018-09-18T03:25:00.852Z,82.60
2018-09-18T03:25:34.030Z,82.60
2018-09-18T03:26:07.231Z,82.70
2018-09-18T03:26:40.400Z,82.90
2018-09-18T03:27:13.669Z,83.00
2018-09-18T03:27:46.852Z,83.20
2018-09-18T03:28:20.022Z,83.90
2018-09-18T03:28:53.179Z,83.20
2018-09-18T03:29:26.406Z,83.20
2018-09-18T03:29:59.576Z,83.90
2018-09-18T03:30:32.754Z,83.20
2018-09-18T03:31:06.066Z,83.30
2018-09-18T03:31:39.267Z,83.30
2018-09-18T03:32:12.430Z,83.30
2018-09-18T03:32:45.643Z,83.40
2018-09-18T03:33:18.786Z,83.40
2018-09-18T03:33:52.075Z,83.40
2018-09-18T03:34:25.342Z,83.40
2018-09-18T03:34:58.479Z,83.40
2018-09-18T03:35:31.718Z,83.40
2018-09-18T03:36:05.390Z,83.50
2018-09-18T03:36:38.710Z,83.50
2018-09-18T03:37:11.866Z,83.50
2018-09-18T03:37:45.056Z,83.90
2018-09-18T03:38:18.290Z,83.60
2018-09-18T03:38:51.594Z,83.60
2018-09-18T03:39:24.739Z,83.60
2018-09-18T03:39:57.960Z,83.60
2018-09-18T03:40:31.127Z,83.50
2018-09-18T03:41:04.411Z,83.20
2018-09-18T03:41:37.839Z,83.00
2018-09-18T03:42:11.613Z,83.00
2018-09-18T03:42:44.805Z,82.90
2018-09-18T03:43:18.074Z,83.00
2018-09-18T03:43:51.258Z,82.90
2018-09-18T03:44:25.050Z,83.10
2018-09-18T03:44:58.586Z,82.70
2018-09-18T03:46:11.482Z,82.30
2018-09-18T03:46:45.239Z,82.50
2018-09-18T03:47:21.257Z,82.60
2018-09-18T03:47:54.490Z,82.60
2018-09-18T03:48:27.642Z,82.40
2018-09-18T03:49:00.834Z,82.40
2018-09-18T03:49:33.962Z,82.40
2018-09-18T03:50:07.680Z,82.50
2018-09-18T03:50:40.888Z,82.60
2018-09-18T03:51:14.053Z,83.00
2018-09-18T03:51:47.225Z,82.90
2018-09-18T03:52:20.394Z,83.00
2018-09-18T03:52:53.623Z,83.00
2018-09-18T03:53:27.079Z,83.00
2018-09-18T03:54:00.306Z,83.00
2018-09-18T03:54:33.550Z,83.00
2018-09-18T03:55:06.726Z,83.00
2018-09-18T03:55:39.906Z,83.00
2018-09-18T03:56:13.395Z,83.10
2018-09-18T03:56:46.651Z,83.10
2018-09-18T03:57:20.059Z,83.20
2018-09-18T03:57:53.328Z,83.20
2018-09-18T03:58:26.834Z,83.10
2018-09-18T03:58:59.999Z,83.10
2018-09-18T03:59:33.174Z,83.20
2018-09-18T04:00:06.362Z,83.20
2018-09-18T04:00:39.538Z,83.30
2018-09-18T04:01:12.683Z,83.30
2018-09-18T04:01:45.826Z,83.40
2018-09-18T04:02:19.062Z,83.50
2018-09-18T04:02:52.314Z,83.60
2018-09-18T04:03:25.515Z,83.70
2018-09-18T04:03:58.784Z,83.80
2018-09-18T04:04:32.020Z,83.80
2018-09-18T04:05:05.261Z,83.80
2018-09-18T04:05:38.485Z,83.80
2018-09-18T04:06:11.670Z,83.90
2018-09-18T04:06:44.920Z,84.20
2018-09-18T04:07:18.175Z,84.30
2018-09-18T04:07:51.379Z,84.40
2018-09-18T04:08:24.671Z,84.50
2018-09-18T04:08:57.891Z,84.70
2018-09-18T04:09:31.049Z,84.60
2018-09-18T04:10:04.277Z,84.70
2018-09-18T04:10:37.440Z,84.90
2018-09-18T04:11:11.457Z,85.00
2018-09-18T04:11:44.991Z,85.00
2018-09-18T04:12:18.154Z,85.00
2018-09-18T04:12:51.361Z,84.90
2018-09-18T04:13:24.846Z,85.10
2018-09-18T04:13:58.005Z,85.20
2018-09-18T04:14:31.238Z,85.20
2018-09-18T04:15:04.992Z,85.20
2018-09-18T04:15:38.157Z,85.30
2018-09-18T04:16:11.832Z,85.40
2018-09-18T04:16:45.315Z,85.40
2018-09-18T04:17:18.494Z,85.40
2018-09-18T04:17:51.708Z,85.50
2018-09-18T04:18:26.190Z,85.50
2018-09-18T04:18:59.418Z,85.50
2018-09-18T04:19:32.635Z,85.50
2018-09-18T04:20:06.222Z,85.50
2018-09-18T04:20:39.385Z,85.40
2018-09-18T04:21:12.689Z,85.40
2018-09-18T04:21:46.098Z,85.40
2018-09-18T04:22:19.261Z,85.50
2018-09-18T04:22:52.629Z,85.60
2018-09-18T04:23:25.812Z,85.90
2018-09-18T04:23:59.021Z,85.90
2018-09-18T04:24:32.486Z,85.90
2018-09-18T04:25:05.876Z,86.00
2018-09-18T04:25:39.062Z,86.00
2018-09-18T04:26:12.269Z,85.90
2018-09-18T04:26:45.470Z,85.90
2018-09-18T04:27:18.836Z,85.80
2018-09-18T04:27:52.067Z,85.70
2018-09-18T04:28:25.294Z,85.60
2018-09-18T04:28:58.618Z,85.80
2018-09-18T04:29:31.898Z,85.60
2018-09-18T04:30:05.283Z,85.60
2018-09-18T04:30:38.471Z,85.70
2018-09-18T04:31:11.748Z,85.80
2018-09-18T04:31:44.928Z,85.80
2018-09-18T04:32:18.194Z,85.80
2018-09-18T04:32:51.398Z,85.70
2018-09-18T04:33:24.675Z,85.60
2018-09-18T04:34:00.867Z,85.50
2018-09-18T04:34:34.444Z,85.60
2018-09-18T04:35:07.841Z,85.60
2018-09-18T04:35:41.027Z,85.60
2018-09-18T04:36:14.182Z,85.60
2018-09-18T04:36:47.300Z,85.50
2018-09-18T04:37:21.722Z,85.60
2018-09-18T04:37:55.329Z,85.70
2018-09-18T04:38:28.634Z,85.90
2018-09-18T04:39:02.051Z,86.00
2018-09-18T04:39:35.376Z,86.40
2018-09-18T04:40:08.565Z,86.50
2018-09-18T04:40:41.821Z,86.50
2018-09-18T04:41:15.629Z,86.70
2018-09-18T04:41:48.933Z,86.80
2018-09-18T04:42:22.393Z,86.90
2018-09-18T04:42:55.699Z,87.00
2018-09-18T04:43:29.138Z,87.20
2018-09-18T04:44:02.569Z,87.30
2018-09-18T04:44:36.468Z,87.50
2018-09-18T04:45:10.379Z,87.60
2018-09-18T04:45:43.823Z,87.60
2018-09-18T04:46:17.299Z,87.60
2018-09-18T04:46:50.642Z,87.50
2018-09-18T04:47:24.226Z,87.50
2018-09-18T04:47:57.781Z,87.40
2018-09-18T04:48:31.118Z,87.50
2018-09-18T04:49:04.533Z,87.50
2018-09-18T04:49:37.757Z,87.50
2018-09-18T04:50:11.251Z,87.50
2018-09-18T04:50:44.495Z,87.60
2018-09-18T04:51:17.723Z,87.70
2018-09-18T04:51:51.210Z,87.70
2018-09-18T04:52:24.571Z,87.60
2018-09-18T04:52:57.920Z,87.40
2018-09-18T04:53:31.338Z,87.60
2018-09-18T04:54:04.533Z,87.60
2018-09-18T04:54:38.011Z,87.40
2018-09-18T04:55:11.556Z,87.40
2018-09-18T04:55:44.771Z,87.30
2018-09-18T04:56:18.184Z,87.50
2018-09-18T04:56:51.760Z,87.60
2018-09-18T04:57:25.279Z,87.60
2018-09-18T04:57:58.525Z,87.40
2018-09-18T04:58:32.053Z,87.50
2018-09-18T04:59:05.365Z,87.50
2018-09-18T04:59:38.595Z,87.40
2018-09-18T05:00:11.845Z,87.40
2018-09-18T05:00:45.140Z,87.40
2018-09-18T05:01:18.519Z,87.40
2018-09-18T05:01:51.831Z,87.40
2018-09-18T05:02:25.103Z,87.50
2018-09-18T05:02:58.360Z,87.60
2018-09-18T05:03:31.967Z,87.50
2018-09-18T05:04:05.335Z,87.30
2018-09-18T05:04:38.602Z,87.10
2018-09-18T05:05:12.205Z,87.10
2018-09-18T05:05:45.458Z,87.20
2018-09-18T05:06:18.765Z,87.00
2018-09-18T05:06:52.230Z,87.10
2018-09-18T05:07:25.439Z,87.00
2018-09-18T05:07:58.981Z,87.00
2018-09-18T05:08:32.580Z,87.10
2018-09-18T05:09:08.120Z,87.00
2018-09-18T05:09:41.517Z,86.90
2018-09-18T05:10:14.820Z,86.90
2018-09-18T05:10:47.998Z,86.90
2018-09-18T05:11:21.273Z,87.00
2018-09-18T05:11:54.559Z,87.10
2018-09-18T05:12:28.036Z,87.20
2018-09-18T05:13:01.402Z,87.40
2018-09-18T05:13:34.671Z,87.60
2018-09-18T05:14:08.161Z,87.70
2018-09-18T05:14:41.634Z,87.50
2018-09-18T05:15:15.161Z,87.30
2018-09-18T05:15:48.466Z,87.20
2018-09-18T05:16:21.797Z,87.10
2018-09-18T05:16:55.105Z,87.10
2018-09-18T05:17:29.606Z,87.20
2018-09-18T05:18:03.114Z,87.10
2018-09-18T05:18:36.531Z,87.00
2018-09-18T05:19:10.504Z,87.00
2018-09-18T05:19:43.801Z,87.60
2018-09-18T05:20:17.166Z,87.10
2018-09-18T05:20:50.402Z,87.10
2018-09-18T05:21:23.673Z,87.20
2018-09-18T05:21:56.884Z,87.30
2018-09-18T05:22:30.358Z,87.40
2018-09-18T05:23:03.650Z,87.50
2018-09-18T05:23:37.699Z,87.50
2018-09-18T05:24:10.966Z,87.60
2018-09-18T05:24:44.353Z,87.80
2018-09-18T05:25:17.667Z,87.90
2018-09-18T05:25:51.201Z,88.10
2018-09-18T05:26:24.593Z,88.20
2018-09-18T05:26:58.074Z,88.30
2018-09-18T05:27:31.322Z,88.40
2018-09-18T05:28:04.614Z,88.40
2018-09-18T05:28:37.835Z,88.40
2018-09-18T05:29:11.092Z,88.40
2018-09-18T05:29:44.533Z,88.20
2018-09-18T05:30:17.941Z,88.20
2018-09-18T05:30:51.495Z,88.10
2018-09-18T05:31:25.197Z,87.90
2018-09-18T05:31:58.517Z,88.00
2018-09-18T05:32:31.799Z,88.10
2018-09-18T05:33:04.992Z,88.90
2018-09-18T05:33:38.371Z,88.20
2018-09-18T05:34:12.156Z,88.30
2018-09-18T05:34:45.579Z,88.10
2018-09-18T05:35:19.010Z,88.20
2018-09-18T05:35:52.445Z,88.10
2018-09-18T05:36:25.819Z,88.00
2018-09-18T05:36:59.653Z,87.90
2018-09-18T05:37:33.063Z,88.00
2018-09-18T05:38:06.472Z,88.10
2018-09-18T05:38:40.526Z,88.20
2018-09-18T05:39:13.858Z,88.10
2018-09-18T05:39:47.213Z,88.30
2018-09-18T05:40:20.922Z,88.20
2018-09-18T05:40:55.490Z,88.50
2018-09-18T05:41:29.206Z,88.50
2018-09-18T05:42:03.172Z,88.60
2018-09-18T05:42:36.510Z,88.70
2018-09-18T05:43:09.805Z,88.90
2018-09-18T05:43:43.241Z,89.00
2018-09-18T05:44:16.426Z,88.80
2018-09-18T05:44:52.014Z,88.70
2018-09-18T05:45:26.071Z,88.70
2018-09-18T05:45:59.501Z,88.80
2018-09-18T05:46:32.728Z,88.80
2018-09-18T05:47:05.956Z,88.80
2018-09-18T05:47:39.304Z,88.80
2018-09-18T05:48:12.966Z,88.80
2018-09-18T05:48:46.346Z,88.70
2018-09-18T05:49:20.031Z,88.80
2018-09-18T05:49:53.438Z,88.80
2018-09-18T05:50:26.731Z,89.50
2018-09-18T05:51:00.052Z,88.90
2018-09-18T05:51:33.559Z,89.10
2018-09-18T05:52:06.792Z,89.10
2018-09-18T05:52:39.986Z,89.10
2018-09-18T05:53:13.259Z,88.80
2018-09-18T05:53:46.464Z,88.80
2018-09-18T05:54:21.263Z,88.80
2018-09-18T05:54:54.866Z,88.90
2018-09-18T05:55:28.451Z,88.80
2018-09-18T05:56:01.703Z,88.80
2018-09-18T05:56:34.998Z,88.80
2018-09-18T05:57:08.239Z,88.90
2018-09-18T05:57:41.974Z,88.90
2018-09-18T05:58:15.261Z,88.90
2018-09-18T05:58:48.611Z,89.10
2018-09-18T05:59:22.093Z,88.40
2018-09-18T05:59:55.312Z,88.10
2018-09-18T06:00:59.317Z,87.70
2018-09-18T06:01:32.544Z,87.70
2018-09-18T06:02:06.223Z,87.30
2018-09-18T06:02:39.670Z,87.30
2018-09-18T06:03:12.933Z,87.30
2018-09-18T06:03:46.205Z,88.00
2018-09-18T06:04:19.519Z,87.40
2018-09-18T06:04:52.818Z,87.60
2018-09-18T06:05:26.291Z,87.70
2018-09-18T06:06:00.520Z,87.70
2018-09-18T06:06:34.428Z,87.80
2018-09-18T06:07:07.647Z,87.70
2018-09-18T06:07:41.130Z,87.60
2018-09-18T06:08:14.366Z,87.60
2018-09-18T06:08:47.556Z,87.60
2018-09-18T06:09:20.844Z,87.70
2018-09-18T06:09:54.043Z,87.80
2018-09-18T06:10:27.671Z,87.80
2018-09-18T06:11:00.908Z,87.20
2018-09-18T06:11:34.110Z,87.80
2018-09-18T06:12:07.519Z,87.80
2018-09-18T06:12:40.994Z,87.90
2018-09-18T06:13:14.131Z,87.90
2018-09-18T06:13:47.323Z,87.90
2018-09-18T06:14:20.606Z,88.00
2018-09-18T06:14:53.880Z,88.00
2018-09-18T06:15:27.152Z,87.90
2018-09-18T06:16:00.619Z,87.40
2018-09-18T06:16:34.178Z,87.60
2018-09-18T06:17:07.371Z,87.30
2018-09-18T06:17:40.654Z,87.10
2018-09-18T06:18:14.018Z,87.00
2018-09-18T06:18:47.395Z,86.90
2018-09-18T06:19:20.707Z,86.80
2018-09-18T06:19:54.245Z,86.60
2018-09-18T06:20:27.526Z,86.50
2018-09-18T06:21:00.801Z,86.10
2018-09-18T06:21:33.946Z,86.00
2018-09-18T06:22:07.246Z,86.20
2018-09-18T06:22:40.553Z,86.50
2018-09-18T06:23:13.905Z,86.80
2018-09-18T06:23:47.337Z,86.90
2018-09-18T06:24:20.898Z,86.90
2018-09-18T06:24:54.073Z,86.80
2018-09-18T06:25:27.934Z,87.00
2018-09-18T06:26:01.169Z,87.20
2018-09-18T06:26:34.377Z,87.30
2018-09-18T06:27:08.753Z,87.30
2018-09-18T06:27:41.940Z,87.30
2018-09-18T06:28:15.126Z,87.20
2018-09-18T06:28:48.505Z,87.10
2018-09-18T06:29:21.854Z,87.00
2018-09-18T06:29:55.005Z,86.90
2018-09-18T06:30:28.350Z,86.80
2018-09-18T06:31:01.563Z,87.10
2018-09-18T06:31:34.903Z,86.90
2018-09-18T06:32:08.174Z,87.00
2018-09-18T06:32:41.417Z,87.10
2018-09-18T06:33:14.928Z,87.10
2018-09-18T06:33:48.512Z,87.20
2018-09-18T06:34:21.798Z,87.30
2018-09-18T06:34:54.951Z,87.40
2018-09-18T06:35:28.578Z,87.40
2018-09-18T06:36:02.116Z,87.30
2018-09-18T06:36:35.325Z,87.50
2018-09-18T06:37:09.426Z,87.60
2018-09-18T06:37:42.961Z,87.60
2018-09-18T06:38:16.336Z,87.60
2018-09-18T06:38:49.633Z,87.70
2018-09-18T06:39:23.002Z,87.80
2018-09-18T06:39:56.589Z,87.90
2018-09-18T06:40:29.926Z,88.00
2018-09-18T06:41:03.105Z,87.90
2018-09-18T06:41:36.315Z,87.90
2018-09-18T06:42:09.513Z,87.90
2018-09-18T06:42:42.718Z,88.00
2018-09-18T06:43:16.321Z,88.10
2018-09-18T06:43:49.727Z,88.10
2018-09-18T06:44:23.338Z,88.10
2018-09-18T06:44:56.561Z,88.30
2018-09-18T06:45:30.110Z,88.20
2018-09-18T06:46:03.415Z,87.80
2018-09-18T06:46:36.709Z,87.70
2018-09-18T06:47:10.216Z,87.80
2018-09-18T06:47:43.496Z,87.80
2018-09-18T06:48:17.099Z,87.80
2018-09-18T06:48:50.976Z,87.90
2018-09-18T06:49:24.194Z,88.10
2018-09-18T06:49:57.633Z,88.20
2018-09-18T06:50:31.316Z,88.30
2018-09-18T06:51:04.563Z,88.30
2018-09-18T06:51:38.270Z,88.30
2018-09-18T06:52:11.752Z,88.40
2018-09-18T06:52:44.985Z,88.10
2018-09-18T06:53:18.632Z,87.90
2018-09-18T06:53:52.077Z,88.00
2018-09-18T06:54:25.304Z,87.90
2018-09-18T06:54:58.674Z,87.80
2018-09-18T06:55:31.987Z,87.40
2018-09-18T06:56:05.251Z,87.30
2018-09-18T06:56:38.458Z,87.30
2018-09-18T06:57:11.809Z,87.40
2018-09-18T06:57:45.126Z,87.50
2018-09-18T06:58:18.298Z,87.50
2018-09-18T06:58:51.496Z,87.40
2018-09-18T06:59:24.904Z,87.40
2018-09-18T06:59:58.261Z,87.10
2018-09-18T07:00:31.550Z,86.90
2018-09-18T07:01:04.799Z,87.00
2018-09-18T07:01:38.101Z,86.60
2018-09-18T07:02:11.344Z,86.50
2018-09-18T07:02:44.713Z,86.70
2018-09-18T07:03:17.966Z,86.60
2018-09-18T07:03:51.990Z,86.40
2018-09-18T07:04:25.223Z,86.50
2018-09-18T07:04:58.453Z,86.60
2018-09-18T07:05:31.772Z,86.70
2018-09-18T07:06:04.940Z,86.60
2018-09-18T07:06:38.276Z,86.40
2018-09-18T07:07:11.590Z,86.30
2018-09-18T07:07:45.003Z,86.10
2018-09-18T07:08:18.838Z,86.10
2018-09-18T07:08:52.001Z,85.80
2018-09-18T07:09:25.188Z,85.70
2018-09-18T07:09:58.542Z,85.60
2018-09-18T07:10:31.735Z,85.50